Cooper, Iowa
Current Conditions -  °F | °C
As of 4:15 AM on Saturday 22 Nov 2014 (Local Time) from KPRO Reporting Station
Haze Haze  
Wind Chill: 31°   Ceiling: 400
Heat Index: 37°   Visibility: 1.7mi
Dew Point: 37°   Wind: 7mph
Humidity: 100%   Direction: 170°S
Pressure: 29.92"   Gusts: NA
Location:  41.92°N, 94.35°W
Report Text: KPRO 221015Z AUTO 17006KT 1 3/4SM BR OVC004 03/03 A2992 RMK AO2 T00270027
Loading
Personal Weather Stations






























Interactive Weather Map New forecast layout! Learn more

10-Day Weather Forecast

Advertisements
Track Severe Weather on mobile